KHFF/HFF METAR and TAF weather

Enter ICAO airport designator
Station Type Date Time Source
KHFF METAR 2019/10/23 02:56 UTC NOAA

KHFF 230256Z AUTO 34004KT 10SM BKN041 17/11 A2992 RMK AO2 SLP146 T01710110 52020 $


Station Type Date Time Source
KHFF Decoded METAR 2019/10/23 02:56 UTC NOAA

Mackall U. S. Army Airfield, NC, United States (KHFF) 35-02N 079-30W
Oct 22, 2019 - 10:56 PM EDT / 2019.10.23 0256 UTC
Wind: from the NNW (340 degrees) at 5 MPH (4 KT):0
Visibility: 10 mile(s):0
Sky conditions: mostly cloudy
Temperature: 62.8 F (17.1 C)
Dew Point: 51.8 F (11.0 C)
Relative Humidity: 67%
Pressure (altimeter): 29.92 in. Hg (1013 hPa)
Pressure tendency: 0.06 inches (2.0 hPa) higher than three hours ago
ob: KHFF 230256Z AUTO 34004KT 10SM BKN041 17/11 A2992 RMK AO2 SLP146 T01710110 52020
cycle: 3

Station Type Date Time Source
KHFF TAF UTC NOAA

Error!

Example: see airport list